Time;durP1;ratioP1;P1;durP2;ratioP2;P2;SDS_P1;SDS_P2;PMS_P1;PMS_P2;Temp;Humidity;BMP_temperature;BMP_pressure;BME280_temperature;BME280_humidity;BME280_pressure;Samples;Min_cycle;Max_cycle;Signal;HPM_P1;HPM_P2
2023/09/08 04:31:34;;;;;;;;;;;;;;;24.45;70.45;97107.31;4195465;28;11257;-69
2023/09/08 04:33:37;;;;;;;;;;;;;;;24.72;69.68;97104.25;4179403;28;5586;-77
2023/09/08 04:35:41;;;;;;;;;;;;;;;24.91;69.08;97108.75;4159895;28;5692;-76
2023/09/08 04:37:44;;;;;;;;;;;;;;;25.08;68.37;97111.16;4179569;28;5792;-74
2023/09/08 04:39:47;;;;;;;;;;;;;;;25.18;67.13;97113.81;4178873;28;5676;-66
2023/09/08 04:41:50;;;;;;;;;;;;;;;25.29;66.95;97111.88;4181217;28;5676;-66
2023/09/08 04:43:55;;;;;;;;;;;;;;;25.37;66.58;97111.28;4176542;28;5654;-67
2023/09/08 04:45:58;;;;;;;;;;;;;;;25.44;65.80;97106.34;4181179;28;5890;-67
2023/09/08 04:48:02;;;;;;;;;;;;;;;25.49;65.39;97103.63;4178599;28;5678;-68
2023/09/08 04:50:06;;;;;;;;;;;;;;;25.55;65.31;97107.91;4181215;28;5961;-67
2023/09/08 04:52:11;;;;;;;;;;;;;;;25.59;64.95;97116.25;4176308;28;5862;-67
2023/09/08 04:54:14;;;;;;;;;;;;;;;25.63;64.47;97116.53;4176359;28;5659;-67
2023/09/08 04:56:16;;;;;;;;;;;;;;;25.67;64.23;97122.97;4176004;28;5658;-67
2023/09/08 04:58:19;;;;;;;;;;;;;;;25.68;63.97;97120.00;4173584;28;5776;-68
2023/09/08 05:00:23;;;;;;;;;;;;;;;25.70;63.58;97119.72;4173665;28;5827;-67
2023/09/08 05:02:26;;;;;;;;;;;;;;;25.72;63.55;97114.88;4172948;28;5677;-67
2023/09/08 05:04:30;;;;;;;;;;;;;;;25.74;63.27;97118.91;4181396;28;5741;-68
2023/09/08 05:06:33;;;;;;;;;;;;;;;25.75;63.07;97117.00;4180583;28;5783;-68
2023/09/08 05:08:36;;;;;;;;;;;;;;;25.76;62.61;97118.63;4181066;28;5554;-68
2023/09/08 05:10:40;;;;;;;;;;;;;;;25.79;62.81;97118.03;4174435;28;5670;-66
2023/09/08 05:12:43;;;;;;;;;;;;;;;25.78;62.46;97111.81;4169868;28;5677;-67
2023/09/08 05:14:46;;;;;;;;;;;;;;;25.80;62.39;97119.66;4177091;28;5713;-67
2023/09/08 05:16:55;;;;;;;;;;;;;;;25.80;62.30;97122.38;4178715;28;5817;-67
2023/09/08 05:18:58;;;;;;;;;;;;;;;25.82;61.97;97122.88;4173131;28;5768;-66
2023/09/08 05:21:02;;;;;;;;;;;;;;;25.83;61.95;97129.94;4171571;28;5757;-67
2023/09/08 05:23:05;;;;;;;;;;;;;;;25.83;61.79;97124.53;4180929;28;5895;-66
2023/09/08 05:25:08;;;;;;;;;;;;;;;25.85;61.65;97122.34;4176467;28;5852;-66
2023/09/08 05:27:11;;;;;;;;;;;;;;;25.86;61.63;97133.97;4180300;28;5646;-66
2023/09/08 05:29:14;;;;;;;;;;;;;;;25.85;61.59;97126.97;4176676;28;5669;-66
2023/09/08 05:31:17;;;;;;;;;;;;;;;25.85;61.13;97133.19;4177756;28;6336;-66
2023/09/08 05:33:20;;;;;;;;;;;;;;;25.85;61.34;97137.78;4156225;28;5804;-66
2023/09/08 05:35:23;;;;;;;;;;;;;;;25.85;61.02;97135.88;4146075;28;5585;-66
2023/09/08 05:37:27;;;;;;;;;;;;;;;25.86;60.88;97133.97;4159988;28;5854;-67
2023/09/08 05:39:30;;;;;;;;;;;;;;;25.87;61.11;97141.00;4169999;28;5659;-66
2023/09/08 05:41:34;;;;;;;;;;;;;;;25.89;60.78;97136.13;4177825;28;5619;-66
2023/09/08 05:43:36;;;;;;;;;;;;;;;25.88;60.75;97140.72;4160200;28;5668;-66
2023/09/08 05:45:39;;;;;;;;;;;;;;;25.89;60.76;97134.22;4174798;28;6566;-67
2023/09/08 05:47:42;;;;;;;;;;;;;;;25.90;60.55;97135.84;4171320;28;5787;-69
2023/09/08 05:49:45;;;;;;;;;;;;;;;25.90;60.60;97141.25;4175650;28;5787;-68
2023/09/08 05:51:48;;;;;;;;;;;;;;;25.91;60.36;97144.75;4176870;28;5644;-67
2023/09/08 05:53:52;;;;;;;;;;;;;;;25.91;60.52;97142.88;4169417;28;5827;-67
2023/09/08 05:55:55;;;;;;;;;;;;;;;25.95;60.35;97149.34;4181200;28;5762;-67
2023/09/08 05:57:58;;;;;;;;;;;;;;;25.96;60.33;97150.97;4182162;28;5181;-67
2023/09/08 06:00:01;;;;;;;;;;;;;;;25.97;60.11;97152.59;4173503;28;5647;-67
2023/09/08 06:02:04;;;;;;;;;;;;;;;25.97;60.20;97152.59;4185709;28;5635;-66
2023/09/08 06:04:07;;;;;;;;;;;;;;;25.98;60.17;97146.06;4175714;28;5772;-67
2023/09/08 06:06:11;;;;;;;;;;;;;;;26.00;60.45;97148.50;4174493;28;5822;-67
2023/09/08 06:08:13;;;;;;;;;;;;;;;26.02;60.12;97157.13;4179665;28;5775;-67
2023/09/08 06:10:17;;;;;;;;;;;;;;;26.02;60.14;97152.53;4160913;28;5666;-67
2023/09/08 06:12:20;;;;;;;;;;;;;;;26.02;60.38;97149.00;4176012;28;5778;-67
2023/09/08 06:14:23;;;;;;;;;;;;;;;26.03;60.11;97151.44;4185871;28;5640;-66
2023/09/08 06:16:26;;;;;;;;;;;;;;;26.05;60.23;97154.69;4177973;28;5574;-67
2023/09/08 06:18:30;;;;;;;;;;;;;;;26.06;60.11;97161.72;4177284;28;5744;-66
2023/09/08 06:20:33;;;;;;;;;;;;;;;26.07;60.09;97152.50;4161177;28;5714;-66
2023/09/08 06:22:36;;;;;;;;;;;;;;;26.08;60.07;97162.25;4153244;28;5677;-66
2023/09/08 06:24:40;;;;;;;;;;;;;;;26.08;60.14;97158.72;4163338;28;6112;-67
2023/09/08 06:26:44;;;;;;;;;;;;;;;26.10;60.18;97161.97;4175512;28;5567;-67
2023/09/08 06:28:47;;;;;;;;;;;;;;;26.11;60.20;97163.56;4179502;28;6344;-66
2023/09/08 06:30:50;;;;;;;;;;;;;;;26.10;60.36;97159.25;4176871;28;5714;-66
2023/09/08 06:32:53;;;;;;;;;;;;;;;26.11;60.22;97169.00;4173921;28;5669;-66
2023/09/08 06:34:56;;;;;;;;;;;;;;;26.11;60.37;97169.78;4147320;28;5681;-66
2023/09/08 06:36:59;;;;;;;;;;;;;;;26.10;60.41;97170.88;4153274;28;5792;-67
2023/09/08 06:39:02;;;;;;;;;;;;;;;26.12;60.46;97173.31;4164780;28;5733;-66
2023/09/08 06:41:10;;;;;;;;;;;;;;;26.13;60.42;97181.16;4181702;28;5627;-66
2023/09/08 06:43:14;;;;;;;;;;;;;;;26.14;60.38;97171.13;4171753;28;5677;-66
2023/09/08 06:45:17;;;;;;;;;;;;;;;26.16;60.05;97176.25;4168683;28;5787;-67
2023/09/08 06:47:21;;;;;;;;;;;;;;;26.16;60.33;97176.25;4175749;28;5635;-67
2023/09/08 06:49:24;;;;;;;;;;;;;;;26.17;60.08;97170.56;4184887;28;5654;-67
2023/09/08 06:51:26;;;;;;;;;;;;;;;26.14;60.02;97176.53;4176594;28;5744;-66
2023/09/08 06:53:30;;;;;;;;;;;;;;;26.15;60.02;97177.34;4168594;28;5666;-66
2023/09/08 06:55:34;;;;;;;;;;;;;;;26.13;59.88;97175.72;4168710;28;5658;-67
2023/09/08 06:57:36;;;;;;;;;;;;;;;26.16;59.66;97178.97;4162187;28;5886;-67
2023/09/08 06:59:40;;;;;;;;;;;;;;;26.17;59.60;97177.91;4169261;28;5638;-68
2023/09/08 07:01:43;;;;;;;;;;;;;;;26.17;59.38;97183.31;4174806;28;5737;-67
2023/09/08 07:03:46;;;;;;;;;;;;;;;26.15;59.38;97183.56;4176435;28;5699;-67
2023/09/08 07:05:51;;;;;;;;;;;;;;;26.15;59.47;97182.78;4179221;28;5749;-67
2023/09/08 07:07:53;;;;;;;;;;;;;;;26.17;59.34;97180.59;4176674;28;5651;-67
2023/09/08 07:09:56;;;;;;;;;;;;;;;26.17;59.28;97172.47;4176633;28;5651;-67
2023/09/08 07:11:59;;;;;;;;;;;;;;;26.18;59.19;97174.09;4175872;28;5605;-67
2023/09/08 07:14:03;;;;;;;;;;;;;;;26.20;58.83;97180.84;4168171;28;7754;-66
2023/09/08 07:16:07;;;;;;;;;;;;;;;26.20;58.83;97178.13;4167907;28;5779;-66
2023/09/08 07:18:10;;;;;;;;;;;;;;;26.21;58.57;97185.16;4168018;28;5798;-68
2023/09/08 07:20:13;;;;;;;;;;;;;;;26.23;58.55;97180.25;4167932;28;5890;-68
2023/09/08 07:22:16;;;;;;;;;;;;;;;26.25;58.61;97182.69;4175784;28;8623;-67
2023/09/08 07:24:19;;;;;;;;;;;;;;;26.27;58.61;97188.63;4167907;28;5889;-67
2023/09/08 07:26:22;;;;;;;;;;;;;;;26.27;58.26;97184.00;4183298;28;5707;-67
2023/09/08 07:28:25;;;;;;;;;;;;;;;26.27;58.53;97183.22;4168499;28;5762;-68
2023/09/08 07:30:28;;;;;;;;;;;;;;;26.29;58.35;97183.75;4175917;28;5674;-68
2023/09/08 07:32:33;;;;;;;;;;;;;;;26.30;58.42;97175.34;4167694;28;5811;-67
2023/09/08 07:34:35;;;;;;;;;;;;;;;26.31;58.44;97179.66;4167770;28;5756;-68
2023/09/08 07:36:38;;;;;;;;;;;;;;;26.33;58.45;97182.09;4153397;28;5772;-69
2023/09/08 07:38:42;;;;;;;;;;;;;;;26.32;58.47;97183.19;4158996;28;5282;-67
2023/09/08 07:40:45;;;;;;;;;;;;;;;26.32;58.37;97180.47;4167457;28;5852;-69
2023/09/08 07:42:47;;;;;;;;;;;;;;;26.31;58.30;97186.97;4168610;28;5853;-70
2023/09/08 07:44:50;;;;;;;;;;;;;;;26.32;58.35;97181.28;4168354;28;6344;-64
2023/09/08 07:46:55;;;;;;;;;;;;;;;26.32;58.35;97185.88;4169779;28;5662;-71
2023/09/08 07:49:00;;;;;;;;;;;;;;;26.32;58.54;97175.03;4158785;28;5671;-68
2023/09/08 07:51:03;;;;;;;;;;;;;;;26.34;58.21;97189.13;4164800;28;5744;-72
2023/09/08 07:53:06;;;;;;;;;;;;;;;26.30;58.45;97183.47;4173734;28;5766;-79
2023/09/08 07:55:08;;;;;;;;;;;;;;;26.32;58.39;97189.41;4164997;28;5663;-75
2023/09/08 07:57:10;;;;;;;;;;;;;;;26.32;58.20;97192.13;4167518;28;5679;-75
2023/09/08 07:59:12;;;;;;;;;;;;;;;26.33;58.20;97192.91;4172468;28;5647;-74
2023/09/08 08:01:15;;;;;;;;;;;;;;;26.33;58.40;97192.91;4174819;28;5640;-74
2023/09/08 08:03:17;;;;;;;;;;;;;;;26.32;58.24;97189.41;4165945;28;5562;-71
2023/09/08 08:05:22;;;;;;;;;;;;;;;26.32;58.20;97188.59;4167236;28;5907;-75
2023/09/08 08:07:25;;;;;;;;;;;;;;;26.33;58.45;97188.31;4176094;28;5771;-79
2023/09/08 08:09:28;;;;;;;;;;;;;;;26.35;58.47;97190.72;4166406;28;5894;-76
2023/09/08 08:11:31;;;;;;;;;;;;;;;26.34;58.27;97189.94;4165371;28;5718;-70
2023/09/08 08:13:34;;;;;;;;;;;;;;;26.33;58.41;97196.44;4166230;28;5662;-68
2023/09/08 08:15:38;;;;;;;;;;;;;;;26.34;58.26;97194.53;4162954;28;5665;-71
2023/09/08 08:17:41;;;;;;;;;;;;;;;26.32;58.21;97186.69;4166629;28;5822;-71
2023/09/08 08:19:44;;;;;;;;;;;;;;;26.34;58.44;97189.94;4160968;28;5650;-70
2023/09/08 08:21:48;;;;;;;;;;;;;;;26.34;58.20;97189.13;4175292;28;7828;-83
2023/09/08 08:23:52;;;;;;;;;;;;;;;26.35;58.14;97196.97;4162292;28;5784;-70
2023/09/08 08:25:54;;;;;;;;;;;;;;;26.37;58.16;97191.28;4162097;28;5783;-78
2023/09/08 08:27:58;;;;;;;;;;;;;;;26.38;57.99;97192.91;4166172;28;5814;-75
2023/09/08 08:30:01;;;;;;;;;;;;;;;26.36;57.87;97186.94;4160826;28;5733;-68
2023/09/08 08:32:03;;;;;;;;;;;;;;;26.38;58.05;97192.91;4160939;28;5879;-68
2023/09/08 08:34:06;;;;;;;;;;;;;;;26.41;57.82;97189.63;4166567;28;5679;-67
2023/09/08 08:36:09;;;;;;;;;;;;;;;26.41;57.83;97195.06;4166937;28;5782;-67
2023/09/08 08:38:13;;;;;;;;;;;;;;;26.42;57.73;97193.97;4165153;28;5807;-68
2023/09/08 08:40:16;;;;;;;;;;;;;;;26.44;57.93;97193.66;4151092;28;6476;-68
2023/09/08 08:42:22;;;;;;;;;;;;;;;26.45;57.72;97193.38;4157580;28;5886;-68
2023/09/08 08:44:26;;;;;;;;;;;;;;;26.45;57.59;97187.97;4166863;28;5863;-67
2023/09/08 08:46:29;;;;;;;;;;;;;;;26.46;57.50;97186.88;4165584;28;5673;-67
2023/09/08 08:48:33;;;;;;;;;;;;;;;26.48;57.68;97190.09;4160012;28;5812;-67
2023/09/08 08:50:37;;;;;;;;;;;;;;;26.49;57.75;97180.06;4168298;28;5662;-68
2023/09/08 08:52:40;;;;;;;;;;;;;;;26.49;57.64;97180.88;4167124;28;6328;-66
2023/09/08 08:54:46;;;;;;;;;;;;;;;26.50;57.67;97176.25;4157471;28;5767;-67
2023/09/08 08:56:50;;;;;;;;;;;;;;;26.50;57.63;97174.34;4165861;28;5828;-67
2023/09/08 08:58:53;;;;;;;;;;;;;;;26.49;57.68;97170.03;4164621;28;5635;-67
2023/09/08 09:00:58;;;;;;;;;;;;;;;26.51;57.51;97169.75;4170906;28;5639;-67
2023/09/08 09:03:01;;;;;;;;;;;;;;;26.52;57.28;97172.19;4170358;28;5590;-67
2023/09/08 09:05:17;;;;;;;;;;;;;;;26.51;57.40;97173.28;4173307;28;5803;-67
2023/09/08 09:07:21;;;;;;;;;;;;;;;26.55;57.30;97170.78;4166752;28;6355;-67
2023/09/08 09:09:26;;;;;;;;;;;;;;;26.56;57.22;97170.50;4183105;28;5719;-66
2023/09/08 09:11:30;;;;;;;;;;;;;;;26.54;57.25;97172.69;4170033;28;5783;-67
2023/09/08 09:13:33;;;;;;;;;;;;;;;26.55;57.29;97163.47;4164975;28;5685;-67
2023/09/08 09:15:35;;;;;;;;;;;;;;;26.56;57.29;97165.09;4178813;28;5714;-67
2023/09/08 09:17:39;;;;;;;;;;;;;;;26.56;57.27;97159.66;4185329;28;5642;-67
2023/09/08 09:19:42;;;;;;;;;;;;;;;26.57;57.29;97165.88;4177961;28;6337;-67
2023/09/08 09:21:46;;;;;;;;;;;;;;;26.58;57.26;97173.72;4171595;28;6396;-67
2023/09/08 09:23:49;;;;;;;;;;;;;;;26.59;57.24;97169.13;4183659;28;6731;-67
2023/09/08 09:25:52;;;;;;;;;;;;;;;26.59;57.18;97180.78;4171737;28;5647;-67
2023/09/08 09:27:57;;;;;;;;;;;;;;;26.62;57.12;97174.78;4171279;28;5782;-67
2023/09/08 09:30:00;;;;;;;;;;;;;;;26.63;57.08;97165.56;4185951;28;5726;-67
2023/09/08 09:32:05;;;;;;;;;;;;;;;26.63;57.13;97165.56;4177890;28;5752;-67
2023/09/08 09:34:08;;;;;;;;;;;;;;;26.65;57.27;97168.78;4180965;28;5817;-67
2023/09/08 09:36:21;;;;;;;;;;;;;;;26.65;57.00;97167.97;4174237;28;5644;-67
2023/09/08 09:38:27;;;;;;;;;;;;;;;26.65;57.10;97168.78;4175348;28;5779;-67
2023/09/08 09:40:29;;;;;;;;;;;;;;;26.67;56.89;97163.06;4157953;28;6507;-67
2023/09/08 09:42:32;;;;;;;;;;;;;;;26.66;56.82;97164.16;4169233;28;5662;-67
2023/09/08 09:44:36;;;;;;;;;;;;;;;26.64;56.75;97161.75;4169188;28;5775;-67
2023/09/08 09:46:41;;;;;;;;;;;;;;;26.65;56.72;97163.38;4161165;28;5673;-67
2023/09/08 09:48:43;;;;;;;;;;;;;;;26.66;56.83;97161.47;4163001;28;5855;-67
2023/09/08 09:50:46;;;;;;;;;;;;;;;26.67;56.67;97160.38;4169141;28;5666;-67
2023/09/08 09:52:49;;;;;;;;;;;;;;;26.68;56.49;97167.41;4168734;28;5990;-67
2023/09/08 09:54:54;;;;;;;;;;;;;;;26.66;56.43;97156.84;4169079;28;5791;-67
2023/09/08 09:56:57;;;;;;;;;;;;;;;26.68;56.52;97154.66;4158646;28;5747;-67
2023/09/08 09:59:03;;;;;;;;;;;;;;;26.71;56.40;97153.25;4153107;28;5673;-67
2023/09/08 10:01:11;;;;;;;;;;;;;;;26.73;56.31;97161.09;4152967;28;5669;-67
2023/09/08 10:03:13;;;;;;;;;;;;;;;26.74;56.37;97160.03;4135239;28;5592;-67
2023/09/08 10:05:17;;;;;;;;;;;;;;;26.74;56.32;97151.91;4159267;28;5775;-67
2023/09/08 10:07:20;;;;;;;;;;;;;;;26.76;56.03;97150.50;4169136;28;5783;-68
2023/09/08 10:09:24;;;;;;;;;;;;;;;26.76;56.38;97150.50;4169279;28;5663;-68
2023/09/08 10:11:30;;;;;;;;;;;;;;;26.76;56.28;97147.78;4167663;28;5757;-68
2023/09/08 10:13:39;;;;;;;;;;;;;;;26.79;56.30;97147.22;4169143;28;5661;-68
2023/09/08 10:15:43;;;;;;;;;;;;;;;26.78;56.21;97139.38;4154573;28;5673;-69
2023/09/08 10:17:51;;;;;;;;;;;;;;;26.81;56.01;97144.19;4163056;28;5775;-69
2023/09/08 10:19:57;;;;;;;;;;;;;;;26.82;55.96;97141.19;4164328;28;5775;-68
2023/09/08 10:22:03;;;;;;;;;;;;;;;26.84;56.10;97141.75;4168130;28;5771;-68
2023/09/08 10:24:14;;;;;;;;;;;;;;;26.85;55.92;97139.84;4165842;28;5779;-68
2023/09/08 10:26:18;;;;;;;;;;;;;;;26.85;56.00;97142.56;4166797;28;5947;-69
2023/09/08 10:28:23;;;;;;;;;;;;;;;26.85;55.94;97139.84;4159522;28;5919;-68
2023/09/08 10:30:25;;;;;;;;;;;;;;;26.86;55.92;97144.16;4171722;28;5792;-68
2023/09/08 10:32:29;;;;;;;;;;;;;;;26.87;55.80;97135.72;4169995;28;5674;-68
2023/09/08 10:34:35;;;;;;;;;;;;;;;26.89;55.83;97135.44;4161181;28;5804;-68
2023/09/08 10:36:38;;;;;;;;;;;;;;;26.91;55.76;97141.38;4176510;28;5729;-71
2023/09/08 10:38:47;;;;;;;;;;;;;;;26.91;55.74;97135.94;4168504;28;5654;-68
2023/09/08 10:40:49;;;;;;;;;;;;;;;26.91;55.81;97130.53;4179216;28;5865;-68
2023/09/08 10:43:08;;;;;;;;;;;;;;;26.91;55.76;97138.66;4176705;28;5752;-69
2023/09/08 10:45:16;;;;;;;;;;;;;;;26.91;55.48;97123.19;4169456;28;5868;-68
2023/09/08 10:47:19;;;;;;;;;;;;;;;26.94;55.46;97121.81;4168507;28;5764;-68
2023/09/08 10:49:22;;;;;;;;;;;;;;;26.93;55.44;97112.06;4168380;28;5891;-68
2023/09/08 10:51:27;;;;;;;;;;;;;;;26.95;55.43;97118.78;4168548;28;5779;-68
2023/09/08 10:53:31;;;;;;;;;;;;;;;26.95;55.18;97118.78;4168439;28;5791;-68
2023/09/08 10:55:40;;;;;;;;;;;;;;;26.97;55.10;97116.63;4166085;28;5920;-68
2023/09/08 10:57:46;;;;;;;;;;;;;;;26.98;54.95;97123.66;4167569;28;5678;-68
2023/09/08 10:59:53;;;;;;;;;;;;;;;26.99;55.08;97117.13;4173857;28;5998;-68
2023/09/08 11:01:56;;;;;;;;;;;;;;;27.01;54.92;97111.41;4171883;28;5666;-68
2023/09/08 11:04:05;;;;;;;;;;;;;;;27.03;54.94;97105.72;4168006;28;5923;-68
2023/09/08 11:06:08;;;;;;;;;;;;;;;27.04;54.88;97112.75;4171407;28;5685;-68
2023/09/08 11:08:14;;;;;;;;;;;;;;;27.04;54.76;97108.13;4167598;28;5973;-68
2023/09/08 11:10:17;;;;;;;;;;;;;;;27.06;54.83;97107.84;4167589;28;5771;-68
2023/09/08 11:12:22;;;;;;;;;;;;;;;27.07;54.78;97104.03;4156773;28;5768;-68
2023/09/08 11:14:27;;;;;;;;;;;;;;;27.08;54.42;97106.47;4167065;28;5823;-65
2023/09/08 11:16:33;;;;;;;;;;;;;;;27.09;54.36;97108.09;4168204;28;5689;-65
2023/09/08 11:18:36;;;;;;;;;;;;;;;27.12;54.08;97103.97;4160337;28;5810;-65
2023/09/08 11:20:40;;;;;;;;;;;;;;;27.14;53.84;97107.22;4167108;28;6404;-65
2023/09/08 11:22:45;;;;;;;;;;;;;;;27.16;53.87;97107.72;4167698;28;5707;-65
2023/09/08 11:24:49;;;;;;;;;;;;;;;27.16;53.71;97107.72;4168032;28;5646;-65
2023/09/08 11:26:52;;;;;;;;;;;;;;;27.18;53.41;97100.09;4167920;28;5787;-65
2023/09/08 11:28:55;;;;;;;;;;;;;;;27.17;53.38;97101.19;4167663;28;7425;-65
2023/09/08 11:30:58;;;;;;;;;;;;;;;27.16;53.30;97103.09;4167630;28;5779;-65
2023/09/08 11:33:01;;;;;;;;;;;;;;;27.17;53.55;97099.28;4159640;28;5673;-65
2023/09/08 11:35:06;;;;;;;;;;;;;;;27.20;53.34;97104.13;4167919;28;5878;-65
2023/09/08 11:37:10;;;;;;;;;;;;;;;27.22;53.27;97110.09;4167734;28;5080;-66
2023/09/08 11:39:13;;;;;;;;;;;;;;;27.25;52.77;97100.53;4167726;28;6481;-65
2023/09/08 11:41:17;;;;;;;;;;;;;;;27.25;52.95;97101.34;4167915;28;5899;-65
2023/09/08 11:43:20;;;;;;;;;;;;;;;27.27;52.86;97096.44;4167859;28;5651;-66
2023/09/08 11:45:23;;;;;;;;;;;;;;;27.28;52.46;97091.81;4167444;28;7733;-65
2023/09/08 11:47:26;;;;;;;;;;;;;;;27.30;52.74;97092.34;4167630;28;5780;-64
2023/09/08 11:49:34;;;;;;;;;;;;;;;27.32;52.50;97094.75;4162236;28;5697;-65
2023/09/08 11:51:37;;;;;;;;;;;;;;;27.32;52.37;97094.75;4162612;28;5689;-65
2023/09/08 11:53:42;;;;;;;;;;;;;;;27.31;52.43;97087.72;4166837;28;5784;-65
2023/09/08 11:55:45;;;;;;;;;;;;;;;27.34;52.28;97087.13;4167594;28;5658;-63
2023/09/08 11:57:50;;;;;;;;;;;;;;;27.35;52.16;97094.16;4167585;28;5098;-63
2023/09/08 11:59:53;;;;;;;;;;;;;;;27.37;52.18;97083.81;4161417;28;5979;-65
2023/09/08 12:01:56;;;;;;;;;;;;;;;27.36;52.10;97091.16;4164966;28;6477;-65
2023/09/08 12:03:59;;;;;;;;;;;;;;;27.36;52.04;97082.19;4162457;28;5820;-64
2023/09/08 12:06:03;;;;;;;;;;;;;;;27.36;52.01;97080.28;4155633;28;5779;-65
2023/09/08 12:08:05;;;;;;;;;;;;;;;27.38;51.85;97082.72;4161832;28;5800;-65
2023/09/08 12:10:10;;;;;;;;;;;;;;;27.41;51.86;97073.97;4175321;28;5837;-66
2023/09/08 12:12:13;;;;;;;;;;;;;;;27.41;51.82;97076.69;4167333;28;5746;-65
2023/09/08 12:14:18;;;;;;;;;;;;;;;27.43;51.63;97069.06;4171157;28;5673;-65
2023/09/08 12:16:22;;;;;;;;;;;;;;;27.46;51.59;97065.75;4156678;28;5903;-64
2023/09/08 12:18:39;;;;;;;;;;;;;;;27.46;51.62;97068.47;4166595;28;5957;-65
2023/09/08 12:20:43;;;;;;;;;;;;;;;27.47;51.47;97065.47;4152561;28;5673;-65
2023/09/08 12:22:49;;;;;;;;;;;;;;;27.49;51.11;97065.16;4167370;28;5779;-65
2023/09/08 12:24:58;;;;;;;;;;;;;;;27.50;51.28;97061.34;4167439;28;5804;-67
2023/09/08 12:27:03;;;;;;;;;;;;;;;27.51;51.15;97054.81;4167586;28;5804;-71
2023/09/08 12:29:13;;;;;;;;;;;;;;;27.52;50.77;97051.00;4165488;28;5882;-70
2023/09/08 12:31:18;;;;;;;;;;;;;;;27.53;51.08;97052.63;4158846;28;5669;-76
2023/09/08 12:33:21;;;;;;;;;;;;;;;27.52;50.83;97051.81;4151978;28;5692;-71
2023/09/08 12:35:25;;;;;;;;;;;;;;;27.53;50.72;97044.50;4158272;28;5685;-73
2023/09/08 12:37:28;;;;;;;;;;;;;;;27.53;50.50;97050.72;4152773;28;7285;-73
2023/09/08 12:39:31;;;;;;;;;;;;;;;27.52;50.43;97051.81;4151251;28;5666;-67
2023/09/08 12:41:33;;;;;;;;;;;;;;;27.53;50.20;97041.78;4151078;28;5689;-67
2023/09/08 12:43:36;;;;;;;;;;;;;;;27.57;50.20;97048.22;4149064;28;5819;-69
2023/09/08 12:45:39;;;;;;;;;;;;;;;27.56;49.83;97041.16;4150405;28;5661;-71
2023/09/08 12:47:44;;;;;;;;;;;;;;;27.58;49.95;97041.69;4160599;28;5669;-71
2023/09/08 12:49:45;;;;;;;;;;;;;;;27.59;49.82;97039.75;4164274;28;5647;-68
2023/09/08 12:51:49;;;;;;;;;;;;;;;27.61;49.98;97034.84;4165375;28;5745;-68
2023/09/08 12:53:51;;;;;;;;;;;;;;;27.61;49.85;97027.50;4165041;28;5782;-70
2023/09/08 12:55:55;;;;;;;;;;;;;;;27.61;49.92;97030.22;4158875;28;5787;-74
2023/09/08 12:57:58;;;;;;;;;;;;;;;27.63;49.99;97022.56;4158124;28;5783;-72
2023/09/08 12:59:59;;;;;;;;;;;;;;;27.64;50.12;97016.06;4162635;28;5662;-70
2023/09/08 13:02:03;;;;;;;;;;;;;;;27.67;49.94;97020.94;4163602;28;5650;-70
2023/09/08 13:04:07;;;;;;;;;;;;;;;27.67;50.04;97017.41;4164013;28;5662;-68
2023/09/08 13:06:10;;;;;;;;;;;;;;;27.68;50.00;97011.66;4166508;28;5667;-71
2023/09/08 13:08:15;;;;;;;;;;;;;;;27.73;49.73;97008.84;4158098;28;5661;-68
2023/09/08 13:10:18;;;;;;;;;;;;;;;27.76;49.68;97002.03;4163345;28;5804;-68
2023/09/08 13:12:20;;;;;;;;;;;;;;;27.78;49.79;97002.53;4163982;28;5675;-73
2023/09/08 13:14:22;;;;;;;;;;;;;;;27.80;49.52;97005.75;4163706;28;6395;-73
2023/09/08 13:16:26;;;;;;;;;;;;;;;27.83;49.41;97005.16;4157171;28;5677;-71
2023/09/08 13:18:35;;;;;;;;;;;;;;;27.82;49.55;97004.34;4164060;28;5886;-71
2023/09/08 13:20:39;;;;;;;;;;;;;;;27.82;49.58;97006.25;4162244;28;5849;-69
2023/09/08 13:22:43;;;;;;;;;;;;;;;27.81;49.52;97000.03;4158566;28;6396;-71
2023/09/08 13:24:45;;;;;;;;;;;;;;;27.82;49.77;97000.84;4153369;28;5682;-72
2023/09/08 13:26:48;;;;;;;;;;;;;;;27.81;49.72;96999.22;4155341;28;5812;-73
2023/09/08 13:28:52;;;;;;;;;;;;;;;27.81;49.68;96997.31;4146758;28;5788;-66
2023/09/08 13:30:55;;;;;;;;;;;;;;;27.80;49.92;96994.91;4155036;28;5819;-67
2023/09/08 13:32:58;;;;;;;;;;;;;;;27.82;49.91;96993.47;4151198;28;5850;-74
2023/09/08 13:35:00;;;;;;;;;;;;;;;27.83;49.91;96992.38;4154184;28;5670;-73
2023/09/08 13:37:05;;;;;;;;;;;;;;;27.84;50.06;96988.56;4156848;28;5925;-71
2023/09/08 13:39:08;;;;;;;;;;;;;;;27.85;50.34;96984.72;4157349;28;6001;-66
2023/09/08 13:41:11;;;;;;;;;;;;;;;27.86;50.11;96982.81;4156525;28;5688;-69
2023/09/08 13:43:14;;;;;;;;;;;;;;;27.85;50.21;96979.28;4156238;28;5891;-66
2023/09/08 13:45:16;;;;;;;;;;;;;;;27.87;50.16;96978.22;4156200;28;5792;-72
2023/09/08 13:47:19;;;;;;;;;;;;;;;27.88;50.00;96967.06;4160672;28;6554;-72
2023/09/08 13:49:22;;;;;;;;;;;;;;;27.91;49.75;96973.78;4167880;28;5733;-67
2023/09/08 13:51:25;;;;;;;;;;;;;;;27.90;49.96;96972.19;4169107;28;5649;-73
2023/09/08 13:53:31;;;;;;;;;;;;;;;27.92;50.04;96978.13;4168076;28;5746;-72
2023/09/08 13:55:48;;;;;;;;;;;;;;;27.93;50.02;96968.84;4153664;28;5673;-73
2023/09/08 13:57:53;;;;;;;;;;;;;;;27.95;49.89;96967.44;4156421;28;5775;-70
2023/09/08 13:59:58;;;;;;;;;;;;;;;27.97;49.89;96961.69;4153801;28;5805;-72
2023/09/08 14:02:06;;;;;;;;;;;;;;;27.97;49.79;96956.25;4158822;28;6349;-70
2023/09/08 14:04:11;;;;;;;;;;;;;;;27.96;49.86;96954.66;4161170;28;5685;-70
2023/09/08 14:06:20;;;;;;;;;;;;;;;27.98;49.91;96961.44;4158050;28;6574;-71
2023/09/08 14:08:33;;;;;;;;;;;;;;;28.01;49.68;96960.00;4154509;28;5875;-71
2023/09/08 14:10:38;;;;;;;;;;;;;;;28.03;49.81;96950.44;4164347;28;5861;-68
2023/09/08 14:12:53;;;;;;;;;;;;;;;28.02;49.96;96950.75;4161009;28;5725;-67
2023/09/08 14:14:56;;;;;;;;;;;;;;;28.03;49.75;96953.16;4160751;28;5734;-67
2023/09/08 14:16:58;;;;;;;;;;;;;;;28.02;49.73;96951.56;4150828;28;6501;-73
2023/09/08 14:19:01;;;;;;;;;;;;;;;28.05;49.68;96950.13;4162483;28;7821;-70
2023/09/08 14:21:05;;;;;;;;;;;;;;;28.08;49.53;96957.69;4159757;28;5665;-70
2023/09/08 14:23:08;;;;;;;;;;;;;;;28.11;49.55;96954.38;4165895;28;5727;-69
2023/09/08 14:25:12;;;;;;;;;;;;;;;28.15;49.49;96955.38;4153337;28;5688;-73
2023/09/08 14:27:14;;;;;;;;;;;;;;;28.18;49.48;96948.53;4155802;28;5792;-71
2023/09/08 14:29:17;;;;;;;;;;;;;;;28.22;49.03;96944.91;4163675;28;5745;-69
2023/09/08 14:31:20;;;;;;;;;;;;;;;28.23;49.02;96951.97;4163677;28;5788;-70
2023/09/08 14:33:23;;;;;;;;;;;;;;;28.21;49.20;96948.75;4158478;28;5894;-69
2023/09/08 14:35:26;;;;;;;;;;;;;;;28.20;49.19;96946.31;4169797;28;5665;-73
2023/09/08 14:37:29;;;;;;;;;;;;;;;28.19;49.28;96945.50;4169651;28;5238;-72
2023/09/08 14:39:32;;;;;;;;;;;;;;;28.18;49.24;96943.09;4154479;28;6470;-71
2023/09/08 14:41:36;;;;;;;;;;;;;;;28.17;49.37;96942.28;4159814;28;5812;-69
2023/09/08 14:43:39;;;;;;;;;;;;;;;28.16;49.35;96943.41;4158871;28;5092;-68
2023/09/08 14:45:42;;;;;;;;;;;;;;;28.19;49.33;96936.53;4154653;28;5752;-72
2023/09/08 14:47:45;;;;;;;;;;;;;;;28.20;49.29;96935.44;4159313;28;6551;-71
2023/09/08 14:49:48;;;;;;;;;;;;;;;28.20;49.41;96938.16;4153418;28;5757;-72
2023/09/08 14:51:51;;;;;;;;;;;;;;;28.19;49.52;96936.53;4160232;28;5776;-66
2023/09/08 14:53:54;;;;;;;;;;;;;;;28.17;49.62;96942.28;4157632;28;5690;-65
2023/09/08 14:55:57;;;;;;;;;;;;;;;28.20;49.41;96927.28;4161382;28;6640;-65
2023/09/08 14:58:02;;;;;;;;;;;;;;;28.21;49.42;96934.34;4161923;28;5732;-64
2023/09/08 15:00:08;;;;;;;;;;;;;;;28.21;49.35;96937.06;4161120;28;5768;-65
2023/09/08 15:02:11;;;;;;;;;;;;;;;28.21;49.41;96931.63;4155771;28;5764;-64
2023/09/08 15:04:14;;;;;;;;;;;;;;;28.24;49.17;96937.25;4153130;28;5740;-65
2023/09/08 15:06:17;;;;;;;;;;;;;;;28.28;49.34;96932.03;4156405;28;5823;-66
2023/09/08 15:08:20;;;;;;;;;;;;;;;28.29;49.26;96933.66;4159745;28;5764;-64
2023/09/08 15:10:23;;;;;;;;;;;;;;;28.29;49.31;96923.59;4157494;28;5691;-66
2023/09/08 15:12:25;;;;;;;;;;;;;;;28.28;49.38;96916.53;4156875;28;5666;-65
2023/09/08 15:14:30;;;;;;;;;;;;;;;28.28;49.47;96926.59;4166244;28;5769;-66
2023/09/08 15:16:33;;;;;;;;;;;;;;;28.28;49.41;96927.41;4174879;28;5723;-65
2023/09/08 15:18:35;;;;;;;;;;;;;;;28.29;49.54;96929.03;4183345;28;5734;-65
2023/09/08 15:20:40;;;;;;;;;;;;;;;28.27;49.73;96920.38;4168006;28;5878;-66
2023/09/08 15:22:43;;;;;;;;;;;;;;;28.26;49.72;96916.00;4172756;28;5753;-65
2023/09/08 15:24:46;;;;;;;;;;;;;;;28.30;49.66;96918.94;4160185;28;5752;-65